createdAt,value
2016-12-22T00:00:56.708Z,1.14
2016-12-22T00:01:56.731Z,1.13
2016-12-22T00:02:56.514Z,1.06
2016-12-22T00:03:56.689Z,1.1
2016-12-22T00:04:57.006Z,1.14
2016-12-22T00:05:57.999Z,1.13
2016-12-22T00:06:57.213Z,1.13
2016-12-22T00:07:57.593Z,1.02
2016-12-22T00:08:56.787Z,1.04
2016-12-22T00:09:56.693Z,1.1
2016-12-22T00:10:56.966Z,1.05
2016-12-22T00:11:57.003Z,1.01
2016-12-22T00:12:56.729Z,0.99
2016-12-22T00:13:57.738Z,1.01
2016-12-22T00:14:56.787Z,1.13
2016-12-22T00:15:56.710Z,1.13
2016-12-22T00:16:56.842Z,1.12
2016-12-22T00:17:57.263Z,1.08
2016-12-22T00:18:56.679Z,1.12
2016-12-22T00:19:56.531Z,1.19
2016-12-22T00:20:57.712Z,1.12
2016-12-22T00:21:56.845Z,1.12
2016-12-22T00:22:57.377Z,1.13
2016-12-22T00:23:56.809Z,1.19
2016-12-22T00:24:56.994Z,1.13
2016-12-22T00:25:56.769Z,1.2
2016-12-22T00:26:57.799Z,1.19
2016-12-22T00:27:57.362Z,1.26
2016-12-22T00:28:57.732Z,1.3
2016-12-22T00:29:56.785Z,1.14
2016-12-22T00:30:57.151Z,1.22
2016-12-22T00:31:57.329Z,1.24
2016-12-22T00:32:58.471Z,1.26
2016-12-22T00:33:56.641Z,1.28
2016-12-22T00:34:57.184Z,1.2
2016-12-22T00:35:57.170Z,1.22
2016-12-22T00:36:56.862Z,1.14
2016-12-22T00:37:56.878Z,1.24
2016-12-22T00:38:57.298Z,1.32
2016-12-22T00:39:57.083Z,1.19
2016-12-22T00:40:56.961Z,1.19
2016-12-22T00:41:57.559Z,1.19
2016-12-22T00:42:57.099Z,1.14
2016-12-22T00:43:58.035Z,1.17
2016-12-22T00:44:57.162Z,1.31
2016-12-22T00:45:57.241Z,1.17
2016-12-22T00:46:56.991Z,1.16
2016-12-22T00:47:57.389Z,1.24
2016-12-22T00:48:57.898Z,1.26
2016-12-22T00:49:57.145Z,1.2
2016-12-22T00:50:56.904Z,1.22
2016-12-22T00:51:57.946Z,1.28
2016-12-22T00:52:58.076Z,1.22
2016-12-22T00:53:57.350Z,1.24
2016-12-22T00:54:57.932Z,1.23
2016-12-22T00:55:57.741Z,1.22
2016-12-22T00:56:58.330Z,1.24
2016-12-22T00:57:57.477Z,1.24
2016-12-22T00:58:57.521Z,1.35
2016-12-22T00:59:57.975Z,1.22
2016-12-22T01:00:57.060Z,1.28
2016-12-22T01:01:57.540Z,1.37
2016-12-22T01:02:57.875Z,1.3
2016-12-22T01:03:57.401Z,1.22
2016-12-22T01:04:57.139Z,1.19
2016-12-22T01:05:57.741Z,1.38
2016-12-22T01:06:56.954Z,1.3
2016-12-22T01:07:57.639Z,1.31
2016-12-22T01:08:57.686Z,1.24
2016-12-22T01:09:57.760Z,1.3
2016-12-22T01:10:57.727Z,1.31
2016-12-22T01:11:57.568Z,1.3
2016-12-22T01:12:57.923Z,1.41
2016-12-22T01:13:58.087Z,1.32
2016-12-22T01:14:58.107Z,1.24
2016-12-22T01:15:57.939Z,1.35
2016-12-22T01:16:58.112Z,1.41
2016-12-22T01:17:58.112Z,1.38
2016-12-22T01:18:57.247Z,1.32
2016-12-22T01:19:57.816Z,1.37
2016-12-22T01:20:57.671Z,1.42
2016-12-22T01:21:57.724Z,1.48
2016-12-22T01:22:57.777Z,1.41
2016-12-22T01:23:58.129Z,1.37
2016-12-22T01:24:57.321Z,1.35
2016-12-22T01:25:57.817Z,1.34
2016-12-22T01:26:58.753Z,1.31
2016-12-22T01:27:57.907Z,1.32
2016-12-22T01:28:58.114Z,1.38
2016-12-22T01:29:59.115Z,1.34
2016-12-22T01:30:57.972Z,1.49
2016-12-22T01:31:57.776Z,1.5
2016-12-22T01:32:58.083Z,1.38
2016-12-22T01:33:58.121Z,1.34
2016-12-22T01:34:58.301Z,1.23
2016-12-22T01:35:58.225Z,1.31
2016-12-22T01:36:59.076Z,1.34
2016-12-22T01:37:58.065Z,1.26
2016-12-22T01:38:57.865Z,1.37
2016-12-22T01:39:58.245Z,1.22
2016-12-22T01:40:58.128Z,1.37
2016-12-22T01:41:58.429Z,1.3
2016-12-22T01:42:58.629Z,1.22
2016-12-22T01:43:58.556Z,1.38
2016-12-22T01:44:58.060Z,1.34
2016-12-22T01:45:58.482Z,1.37
2016-12-22T01:46:57.976Z,1.4
2016-12-22T01:47:57.993Z,1.34
2016-12-22T01:48:57.869Z,1.3
2016-12-22T01:49:57.911Z,1.38
2016-12-22T01:50:58.539Z,1.31
2016-12-22T01:51:57.863Z,1.34
2016-12-22T01:52:58.751Z,1.34
2016-12-22T01:53:58.237Z,1.45
2016-12-22T01:54:57.907Z,1.31
2016-12-22T01:55:57.865Z,1.31
2016-12-22T01:56:58.580Z,1.35
2016-12-22T01:57:58.464Z,1.31
2016-12-22T01:58:57.779Z,1.32
2016-12-22T01:59:57.963Z,1.4
2016-12-22T02:00:57.959Z,1.34
2016-12-22T02:01:57.791Z,1.38
2016-12-22T02:02:57.977Z,1.34
2016-12-22T02:03:57.758Z,1.28
2016-12-22T02:04:58.812Z,1.38
2016-12-22T02:05:58.604Z,1.38
2016-12-22T02:06:59.294Z,1.41
2016-12-22T02:07:58.046Z,1.37
2016-12-22T02:08:57.940Z,1.4
2016-12-22T02:09:58.331Z,1.41
2016-12-22T02:10:58.677Z,1.35
2016-12-22T02:11:58.484Z,1.48
2016-12-22T02:12:58.311Z,1.37
2016-12-22T02:13:58.752Z,1.38
2016-12-22T02:14:58.977Z,1.4
2016-12-22T02:15:59.340Z,1.37
2016-12-22T02:16:58.622Z,1.37
2016-12-22T02:17:58.536Z,1.4
2016-12-22T02:18:58.227Z,1.41
2016-12-22T02:19:58.839Z,1.4
2016-12-22T02:20:58.622Z,1.4
2016-12-22T02:21:58.324Z,1.41
2016-12-22T02:22:58.227Z,1.37
2016-12-22T02:23:58.738Z,1.34
2016-12-22T02:24:59.198Z,1.42
2016-12-22T02:25:58.499Z,1.32
2016-12-22T02:26:58.447Z,1.37
2016-12-22T02:27:59.397Z,1.34
2016-12-22T02:28:58.689Z,1.45
2016-12-22T02:29:59.651Z,1.4
2016-12-22T02:30:59.025Z,1.38
2016-12-22T02:31:58.706Z,1.37
2016-12-22T02:32:59.653Z,1.44
2016-12-22T02:33:58.837Z,1.42
2016-12-22T02:34:59.404Z,1.42
2016-12-22T02:35:58.684Z,1.4
2016-12-22T02:36:58.554Z,1.48
2016-12-22T02:37:58.546Z,1.48
2016-12-22T02:38:58.619Z,1.41
2016-12-22T02:39:58.246Z,1.4
2016-12-22T02:40:58.497Z,1.4
2016-12-22T02:41:58.565Z,1.35
2016-12-22T02:42:58.562Z,1.38
2016-12-22T02:43:59.196Z,1.4
2016-12-22T02:44:58.586Z,1.41
2016-12-22T02:45:58.558Z,1.37
2016-12-22T02:46:58.861Z,1.37
2016-12-22T02:47:59.519Z,1.32
2016-12-22T02:48:59.761Z,1.4
2016-12-22T02:49:58.517Z,1.41
2016-12-22T02:50:58.884Z,1.32
2016-12-22T02:51:58.793Z,1.38
2016-12-22T02:52:59.299Z,1.35
2016-12-22T02:53:58.605Z,1.38
2016-12-22T02:54:58.868Z,1.4
2016-12-22T02:55:59.798Z,1.37
2016-12-22T02:56:59.339Z,1.37
2016-12-22T02:57:58.754Z,1.41
2016-12-22T02:58:59.327Z,1.41
2016-12-22T02:59:59.020Z,1.32
2016-12-22T03:00:58.689Z,1.35
2016-12-22T03:01:59.111Z,1.38
2016-12-22T03:02:58.864Z,1.38
2016-12-22T03:03:58.858Z,1.4
2016-12-22T03:04:59.168Z,1.44
2016-12-22T03:05:58.817Z,1.45
2016-12-22T03:06:58.858Z,1.48
2016-12-22T03:07:59.061Z,1.38
2016-12-22T03:08:58.863Z,1.37
2016-12-22T03:09:58.651Z,1.34
2016-12-22T03:10:59.124Z,1.42
2016-12-22T03:11:58.793Z,1.35
2016-12-22T03:12:58.591Z,1.32
2016-12-22T03:13:59.196Z,1.34
2016-12-22T03:14:58.984Z,1.38
2016-12-22T03:15:59.592Z,1.45
2016-12-22T03:16:58.760Z,1.4
2016-12-22T03:17:58.479Z,1.34
2016-12-22T03:18:58.787Z,1.45
2016-12-22T03:19:59.607Z,1.41
2016-12-22T03:20:58.905Z,1.44
2016-12-22T03:21:59.131Z,1.35
2016-12-22T03:22:59.521Z,1.4
2016-12-22T03:23:59.117Z,1.35
2016-12-22T03:24:59.627Z,1.4
2016-12-22T03:25:59.919Z,1.32
2016-12-22T03:26:59.764Z,1.34
2016-12-22T03:27:59.515Z,1.34
2016-12-22T03:28:59.084Z,1.48
2016-12-22T03:29:59.543Z,1.41
2016-12-22T03:30:59.067Z,1.42
2016-12-22T03:31:59.185Z,1.32
2016-12-22T03:32:59.008Z,1.41
2016-12-22T03:33:59.030Z,1.42
2016-12-22T03:34:59.823Z,1.41
2016-12-22T03:35:59.303Z,1.45
2016-12-22T03:36:59.571Z,1.42
2016-12-22T03:38:00.003Z,1.32
2016-12-22T03:38:59.049Z,1.38
2016-12-22T03:39:59.726Z,1.45
2016-12-22T03:40:59.832Z,1.41
2016-12-22T03:41:58.861Z,1.37
2016-12-22T03:42:59.356Z,1.44
2016-12-22T03:43:59.071Z,1.41
2016-12-22T03:44:59.336Z,1.48
2016-12-22T03:45:59.318Z,1.38
2016-12-22T03:46:58.927Z,1.45
2016-12-22T03:47:59.748Z,1.49
2016-12-22T03:48:59.452Z,1.41
2016-12-22T03:49:59.778Z,1.45
2016-12-22T03:50:59.854Z,1.32
2016-12-22T03:51:59.592Z,1.42
2016-12-22T03:53:00.729Z,1.34
2016-12-22T03:54:00.638Z,1.38
2016-12-22T03:54:59.905Z,1.4
2016-12-22T03:55:59.973Z,1.4
2016-12-22T03:56:59.974Z,1.42
2016-12-22T03:57:59.161Z,1.44
2016-12-22T03:58:59.795Z,1.38
2016-12-22T03:59:59.571Z,1.32
2016-12-22T04:00:59.285Z,1.37
2016-12-22T04:01:59.434Z,1.34
2016-12-22T04:02:59.077Z,1.32
2016-12-22T04:03:59.912Z,1.38
2016-12-22T04:04:59.497Z,1.38
2016-12-22T04:05:59.323Z,1.4
2016-12-22T04:06:59.884Z,1.3
2016-12-22T04:07:59.345Z,1.42
2016-12-22T04:09:00.366Z,1.44
2016-12-22T04:10:00.258Z,1.34
2016-12-22T04:10:59.642Z,1.42
2016-12-22T04:11:59.823Z,1.35
2016-12-22T04:12:59.657Z,1.45
2016-12-22T04:14:00.001Z,1.38
2016-12-22T04:14:59.747Z,1.48
2016-12-22T04:15:59.695Z,1.45
2016-12-22T04:17:00.187Z,1.45
2016-12-22T04:17:59.625Z,1.42
2016-12-22T04:19:00.168Z,1.42
2016-12-22T04:20:00.319Z,1.48
2016-12-22T04:20:59.465Z,1.45
2016-12-22T04:21:59.691Z,1.5
2016-12-22T04:22:59.591Z,1.52
2016-12-22T04:23:59.920Z,1.45
2016-12-22T04:24:59.872Z,1.42
2016-12-22T04:25:59.881Z,1.48
2016-12-22T04:27:00.560Z,1.41
2016-12-22T04:27:59.820Z,1.32
2016-12-22T04:29:00.000Z,1.31
2016-12-22T04:29:59.640Z,1.4
2016-12-22T04:30:59.594Z,1.35
2016-12-22T04:31:59.975Z,1.44
2016-12-22T04:33:00.300Z,1.42
2016-12-22T04:34:00.207Z,1.38
2016-12-22T04:34:59.991Z,1.32
2016-12-22T04:36:00.923Z,1.38
2016-12-22T04:37:00.593Z,1.35
2016-12-22T04:38:00.659Z,1.44
2016-12-22T04:38:59.525Z,1.44
2016-12-22T04:40:00.539Z,1.4
2016-12-22T04:40:59.586Z,1.34
2016-12-22T04:42:00.509Z,1.52
2016-12-22T04:43:00.194Z,1.45
2016-12-22T04:44:01.216Z,1.44
2016-12-22T04:45:00.477Z,1.35
2016-12-22T04:46:00.205Z,1.31
2016-12-22T04:47:00.876Z,1.37
2016-12-22T04:47:59.806Z,1.4
2016-12-22T04:48:59.938Z,1.41
2016-12-22T04:49:59.948Z,1.48
2016-12-22T04:51:00.411Z,1.5
2016-12-22T04:52:00.172Z,1.41
2016-12-22T04:52:59.786Z,1.42
2016-12-22T04:54:00.268Z,1.52
2016-12-22T04:55:00.503Z,1.44
2016-12-22T04:56:01.150Z,1.38
2016-12-22T04:57:00.126Z,1.49
2016-12-22T04:58:00.751Z,1.55
2016-12-22T04:59:00.273Z,1.42
2016-12-22T05:00:00.576Z,1.56
2016-12-22T05:01:00.335Z,1.38
2016-12-22T05:01:59.870Z,1.38
2016-12-22T05:03:00.710Z,1.5
2016-12-22T05:04:00.806Z,1.52
2016-12-22T05:05:00.741Z,1.42
2016-12-22T05:06:00.599Z,1.42
2016-12-22T05:07:00.416Z,1.45
2016-12-22T05:08:01.062Z,1.55
2016-12-22T05:09:00.638Z,1.55
2016-12-22T05:10:00.767Z,1.55
2016-12-22T05:11:01.139Z,1.52
2016-12-22T05:12:00.213Z,1.53
2016-12-22T05:13:00.270Z,1.5
2016-12-22T05:14:00.142Z,1.48
2016-12-22T05:15:02.369Z,1.42
2016-12-22T05:16:02.353Z,1.45
2016-12-22T05:17:03.832Z,1.52
2016-12-22T05:18:01.689Z,1.42
2016-12-22T05:19:02.956Z,1.5
2016-12-22T05:20:02.723Z,1.52
2016-12-22T05:21:01.240Z,1.5
2016-12-22T05:22:02.918Z,1.48
2016-12-22T05:23:02.112Z,1.52
2016-12-22T05:24:02.633Z,1.49
2016-12-22T05:25:04.378Z,1.49
2016-12-22T05:26:01.787Z,1.49
2016-12-22T05:27:01.853Z,1.53
2016-12-22T05:28:02.848Z,1.58
2016-12-22T05:29:02.803Z,1.48
2016-12-22T05:30:01.905Z,1.42
2016-12-22T05:31:01.402Z,1.56
2016-12-22T05:32:02.155Z,1.45
2016-12-22T05:33:02.071Z,1.56
2016-12-22T05:34:03.708Z,1.6
2016-12-22T05:35:01.377Z,1.52
2016-12-22T05:36:01.510Z,1.48
2016-12-22T05:37:02.760Z,1.5
2016-12-22T05:38:01.886Z,1.56
2016-12-22T05:39:04.475Z,1.5
2016-12-22T05:40:01.862Z,1.56
2016-12-22T05:41:01.833Z,1.58
2016-12-22T05:42:02.665Z,1.58
2016-12-22T05:43:01.582Z,1.55
2016-12-22T05:44:00.900Z,1.5
2016-12-22T05:45:03.244Z,1.49
2016-12-22T05:46:03.085Z,1.44
2016-12-22T05:47:03.742Z,1.52
2016-12-22T05:48:02.139Z,1.5
2016-12-22T05:49:02.159Z,1.53
2016-12-22T05:50:03.599Z,1.52
2016-12-22T05:51:01.762Z,1.58
2016-12-22T05:52:02.785Z,1.55
2016-12-22T05:53:01.701Z,1.55
2016-12-22T05:54:02.897Z,1.49
2016-12-22T05:55:03.404Z,1.6
2016-12-22T05:56:02.937Z,1.59
2016-12-22T05:57:04.327Z,1.58
2016-12-22T05:58:04.236Z,1.53
2016-12-22T05:59:02.641Z,1.59
2016-12-22T06:00:02.838Z,1.6
2016-12-22T06:01:02.137Z,1.58
2016-12-22T06:02:03.735Z,1.53
2016-12-22T06:03:03.526Z,1.58
2016-12-22T06:04:03.255Z,1.53
2016-12-22T06:05:03.230Z,1.56
2016-12-22T06:06:03.195Z,1.62
2016-12-22T06:07:02.450Z,1.62
2016-12-22T06:08:03.729Z,1.62
2016-12-22T06:09:04.419Z,1.66
2016-12-22T06:10:04.522Z,1.6
2016-12-22T06:11:03.354Z,1.63
2016-12-22T06:12:03.202Z,1.63
2016-12-22T06:13:03.430Z,1.7
2016-12-22T06:14:04.392Z,1.71
2016-12-22T06:15:03.396Z,1.68
2016-12-22T06:16:03.913Z,1.6
2016-12-22T06:17:04.153Z,1.6
2016-12-22T06:18:02.728Z,1.74
2016-12-22T06:19:04.502Z,1.68
2016-12-22T06:20:03.371Z,1.71
2016-12-22T06:21:03.785Z,1.71
2016-12-22T06:22:02.401Z,1.59
2016-12-22T06:23:02.100Z,1.62
2016-12-22T06:24:02.248Z,1.62
2016-12-22T06:25:01.416Z,1.66
2016-12-22T06:26:03.187Z,1.66
2016-12-22T06:27:03.358Z,1.62
2016-12-22T06:28:03.208Z,1.63
2016-12-22T06:29:01.747Z,1.63
2016-12-22T06:30:01.578Z,1.62
2016-12-22T06:31:02.353Z,1.62
2016-12-22T06:32:01.876Z,1.73
2016-12-22T06:34:01.734Z,1.66
2016-12-22T06:35:02.335Z,1.62
2016-12-22T06:36:03.807Z,1.71
2016-12-22T06:37:02.131Z,1.7
2016-12-22T06:38:03.813Z,1.68
2016-12-22T06:39:03.232Z,1.66
2016-12-22T06:40:02.145Z,1.66
2016-12-22T06:41:04.466Z,1.62
2016-12-22T06:42:02.365Z,1.67
2016-12-22T06:43:02.986Z,1.63
2016-12-22T06:44:04.207Z,1.66
2016-12-22T06:45:02.773Z,1.7
2016-12-22T06:46:03.637Z,1.7
2016-12-22T06:47:04.148Z,1.66
2016-12-22T06:48:03.531Z,1.63
2016-12-22T06:49:03.342Z,1.66
2016-12-22T06:50:03.945Z,1.63
2016-12-22T06:51:03.341Z,1.73
2016-12-22T06:52:03.014Z,1.67
2016-12-22T06:53:02.514Z,1.67
2016-12-22T06:54:02.927Z,1.67
2016-12-22T06:55:04.099Z,1.68
2016-12-22T06:56:03.555Z,1.67
2016-12-22T06:57:04.422Z,1.62
2016-12-22T06:58:05.131Z,1.7
2016-12-22T06:59:06.583Z,1.6
2016-12-22T07:00:03.365Z,1.62
2016-12-22T07:01:03.781Z,1.66
2016-12-22T07:02:03.589Z,1.58
2016-12-22T07:03:02.993Z,1.59
2016-12-22T07:04:02.999Z,1.59
2016-12-22T07:05:03.759Z,1.56
2016-12-22T07:06:02.690Z,1.62
2016-12-22T23:00:54.894Z,2.71
2016-12-22T23:01:55.318Z,2.75
2016-12-22T23:02:54.352Z,2.77
2016-12-22T23:03:54.711Z,2.83
2016-12-22T23:04:54.113Z,2.72
2016-12-22T23:05:54.429Z,2.72
2016-12-22T23:06:54.386Z,2.77
2016-12-22T23:07:54.335Z,2.77
2016-12-22T23:08:54.323Z,2.77
2016-12-22T23:09:54.601Z,2.83
2016-12-22T23:10:54.833Z,2.83
2016-12-22T23:11:55.165Z,2.82
2016-12-22T23:12:55.176Z,2.82
2016-12-22T23:13:54.912Z,2.79
2016-12-22T23:14:55.038Z,2.77
2016-12-22T23:15:55.232Z,2.77
2016-12-22T23:16:55.239Z,2.77
2016-12-22T23:17:54.778Z,2.83
2016-12-22T23:18:54.459Z,2.74
2016-12-22T23:19:54.770Z,2.71
2016-12-22T23:20:55.270Z,2.72
2016-12-22T23:21:54.855Z,2.72
2016-12-22T23:22:54.500Z,2.71
2016-12-22T23:23:55.172Z,2.74
2016-12-22T23:24:54.994Z,2.69
2016-12-22T23:25:54.719Z,2.75
2016-12-22T23:26:54.767Z,2.71
2016-12-22T23:27:54.694Z,2.71
2016-12-22T23:28:54.592Z,2.68
2016-12-22T23:29:55.738Z,2.75
2016-12-22T23:30:55.215Z,2.71
2016-12-22T23:31:54.704Z,2.72
2016-12-22T23:32:54.876Z,2.77
2016-12-22T23:33:54.605Z,2.74
2016-12-22T23:34:54.840Z,2.67
2016-12-22T23:35:54.951Z,2.71
2016-12-22T23:36:55.568Z,2.68
2016-12-22T23:37:55.167Z,2.83
2016-12-22T23:38:54.915Z,2.72
2016-12-22T23:39:54.862Z,2.69
2016-12-22T23:40:54.654Z,2.72
2016-12-22T23:41:55.334Z,2.68
2016-12-22T23:42:55.348Z,2.75
2016-12-22T23:43:54.872Z,2.67
2016-12-22T23:44:55.375Z,2.69
2016-12-22T23:45:55.080Z,2.75
2016-12-22T23:46:55.486Z,2.79
2016-12-22T23:47:54.711Z,2.75
2016-12-22T23:48:55.273Z,2.72
2016-12-22T23:49:54.879Z,2.77
2016-12-22T23:50:54.846Z,2.71
2016-12-22T23:51:55.683Z,2.77
2016-12-22T23:52:55.406Z,2.74
2016-12-22T23:53:54.913Z,2.79
2016-12-22T23:54:55.838Z,2.68
2016-12-22T23:55:55.171Z,2.79
2016-12-22T23:56:55.210Z,2.74
2016-12-22T23:57:55.144Z,2.8
2016-12-22T23:58:55.387Z,2.69
2016-12-22T23:59:56.192Z,2.77
